Evelyn James — WDI8937 — position and weather

sailwx.info

Track history (hours):
 
Tides and Currents Weather Stations Pressure Air Temp Water Temp Dewpoint Dewpoint Depression Visibility Wind Speed Wind Dir Waves Ship Positions

Evelyn James

Owner: NGL Marine, LLC, Deer Park, TX. More information available from US FCC via Universal Licensing System and Coast Guard Vessel Documentation Center.

Last reported at 2017-Oct-18 18:04 UTC. Time now 2017-Oct-19 14:19 UTC.
Position N 29°46' W 095°05'.

Length 25 m.

Type: Pilot. MMSI: 367743660.

Date/timePositionNaut miles runAvg speedWind from/ knotsBaromVisibWave heightAir tempDewpointWater temp
2017-Oct-18 18:04N 29°46' W 095°05'3 7.0
2017-Oct-18 17:38N 29°44' W 095°08'1 6.6
2017-Oct-18 17:28N 29°44' W 095°09'1 1.1
2017-Oct-18 17:00N 29°44' W 095°10'0 0.0
2017-Oct-18 16:30N 29°44' W 095°10'0 0.0
2017-Oct-18 16:00N 29°44' W 095°10'0 0.0
2017-Oct-18 15:30N 29°44' W 095°10'0 0.0
2017-Oct-18 15:00N 29°44' W 095°10'0 0.0
2017-Oct-18 14:00N 29°44' W 095°10'0 0.0
2017-Oct-18 13:30N 29°44' W 095°10'0 0.0
2017-Oct-18 13:00N 29°44' W 095°10'0 0.0
2017-Oct-18 12:30N 29°44' W 095°10'0 0.0
2017-Oct-18 12:00N 29°44' W 095°10'0 0.0
2017-Oct-18 11:30N 29°44' W 095°10'0 0.0
2017-Oct-18 11:00N 29°44' W 095°10'0 0.0
2017-Oct-18 10:30N 29°44' W 095°10'0 0.0
2017-Oct-18 09:59N 29°44' W 095°10'0 0.0
2017-Oct-18 09:29N 29°44' W 095°10'0 0.0
2017-Oct-18 09:00N 29°44' W 095°10'0 0.0
2017-Oct-18 08:30N 29°44' W 095°10'0 0.0
2017-Oct-18 08:00N 29°44' W 095°10'0 0.0
2017-Oct-18 07:30N 29°44' W 095°10'0 0.0
2017-Oct-18 07:00N 29°44' W 095°10'0 0.0
2017-Oct-18 06:30N 29°44' W 095°10'0 0.0
2017-Oct-18 06:00N 29°44' W 095°10'0 0.0
2017-Oct-18 05:30N 29°44' W 095°10'0 0.0
2017-Oct-18 05:00N 29°44' W 095°10'0 0.0
2017-Oct-18 04:30N 29°44' W 095°10'0 0.0
2017-Oct-18 04:00N 29°44' W 095°10'0 0.0
2017-Oct-18 03:30N 29°44' W 095°10'0 0.0
2017-Oct-18 03:00N 29°44' W 095°10'0 0.0
2017-Oct-18 02:30N 29°44' W 095°10'0 0.0
2017-Oct-18 02:00N 29°44' W 095°10'0 0.0
2017-Oct-18 01:30N 29°44' W 095°10'0 0.0
2017-Oct-18 01:00N 29°44' W 095°10'0 0.0
2017-Oct-18 00:30N 29°44' W 095°10'0 0.0
2017-Oct-18 00:00N 29°44' W 095°10'1 1.0
2017-Oct-17 23:24N 29°44' W 095°09'5 0.3
2017-Oct-17 05:35N 29°47' W 095°05'1 3.8
2017-Oct-17 05:22N 29°46' W 095°05'2 5.4
2017-Oct-17 04:57N 29°44' W 095°07'2 4.9
2017-Oct-17 04:30N 29°44' W 095°09'2 4.6
2017-Oct-17 04:00N 29°45' W 095°12'0 0.0
2017-Oct-17 03:16N 29°45' W 095°12'0 0.2
2017-Oct-17 03:00N 29°45' W 095°12'0 0.0
2017-Oct-17 02:30N 29°45' W 095°12'0 0.0
2017-Oct-17 02:00N 29°45' W 095°12'0 0.0
2017-Oct-17 01:30N 29°45' W 095°12'0 0.0
2017-Oct-17 01:00N 29°45' W 095°12'0 0.0
2017-Oct-17 00:29N 29°45' W 095°12'0 0.0
2017-Oct-16 23:58N 29°45' W 095°12'0 0.0
2017-Oct-16 23:28N 29°45' W 095°12'0 0.0
2017-Oct-16 22:58N 29°45' W 095°12'0 0.0
2017-Oct-16 22:24N 29°45' W 095°12'0 0.0
2017-Oct-16 21:59N 29°45' W 095°12'0 0.0
2017-Oct-16 21:24N 29°45' W 095°12'0 0.0
2017-Oct-16 20:46N 29°45' W 095°12'0 0.0
2017-Oct-16 20:27N 29°45' W 095°12'0 0.0
2017-Oct-16 20:00N 29°45' W 095°12'0 0.0
2017-Oct-16 19:24N 29°45' W 095°12'0 0.0
2017-Oct-16 18:59N 29°45' W 095°12'0 0.0
2017-Oct-16 18:28N 29°45' W 095°12'2 0.1
2017-Oct-16 06:03N 29°45' W 095°10'0 7.0
2017-Oct-16 06:00N 29°44' W 095°09'  
Track history (hours):
 
Tides and Currents Weather Stations Pressure Air Temp Water Temp Dewpoint Dewpoint Depression Visibility Wind Speed Wind Dir Waves Ship Positions

Evelyn James

Owner: NGL Marine, LLC, Deer Park, TX. More information available from US FCC via Universal Licensing System and Coast Guard Vessel Documentation Center.

Last reported at 2017-Oct-18 18:04 UTC. Time now 2017-Oct-19 14:19 UTC.
Position N 29°46' W 095°05'.

Length 25 m.

Type: Pilot. MMSI: 367743660.

Date/timePositionNaut miles runAvg speedWind from/ knotsBaromVisibWave heightAir tempDewpointWater temp
2017-Oct-18 18:04N 29°46' W 095°05'3 7.0
2017-Oct-18 17:38N 29°44' W 095°08'1 6.6
2017-Oct-18 17:28N 29°44' W 095°09'1 1.1
2017-Oct-18 17:00N 29°44' W 095°10'0 0.0
2017-Oct-18 16:30N 29°44' W 095°10'0 0.0
2017-Oct-18 16:00N 29°44' W 095°10'0 0.0
2017-Oct-18 15:30N 29°44' W 095°10'0 0.0
2017-Oct-18 15:00N 29°44' W 095°10'0 0.0
2017-Oct-18 14:00N 29°44' W 095°10'0 0.0
2017-Oct-18 13:30N 29°44' W 095°10'0 0.0
2017-Oct-18 13:00N 29°44' W 095°10'0 0.0
2017-Oct-18 12:30N 29°44' W 095°10'0 0.0
2017-Oct-18 12:00N 29°44' W 095°10'0 0.0
2017-Oct-18 11:30N 29°44' W 095°10'0 0.0
2017-Oct-18 11:00N 29°44' W 095°10'0 0.0
2017-Oct-18 10:30N 29°44' W 095°10'0 0.0
2017-Oct-18 09:59N 29°44' W 095°10'0 0.0
2017-Oct-18 09:29N 29°44' W 095°10'0 0.0
2017-Oct-18 09:00N 29°44' W 095°10'0 0.0
2017-Oct-18 08:30N 29°44' W 095°10'0 0.0
2017-Oct-18 08:00N 29°44' W 095°10'0 0.0
2017-Oct-18 07:30N 29°44' W 095°10'0 0.0
2017-Oct-18 07:00N 29°44' W 095°10'0 0.0
2017-Oct-18 06:30N 29°44' W 095°10'0 0.0
2017-Oct-18 06:00N 29°44' W 095°10'0 0.0
2017-Oct-18 05:30N 29°44' W 095°10'0 0.0
2017-Oct-18 05:00N 29°44' W 095°10'0 0.0
2017-Oct-18 04:30N 29°44' W 095°10'0 0.0
2017-Oct-18 04:00N 29°44' W 095°10'0 0.0
2017-Oct-18 03:30N 29°44' W 095°10'0 0.0
2017-Oct-18 03:00N 29°44' W 095°10'0 0.0
2017-Oct-18 02:30N 29°44' W 095°10'0 0.0
2017-Oct-18 02:00N 29°44' W 095°10'0 0.0
2017-Oct-18 01:30N 29°44' W 095°10'0 0.0
2017-Oct-18 01:00N 29°44' W 095°10'0 0.0
2017-Oct-18 00:30N 29°44' W 095°10'0 0.0
2017-Oct-18 00:00N 29°44' W 095°10'1 1.0
2017-Oct-17 23:24N 29°44' W 095°09'5 0.3
2017-Oct-17 05:35N 29°47' W 095°05'1 3.8
2017-Oct-17 05:22N 29°46' W 095°05'2 5.4
2017-Oct-17 04:57N 29°44' W 095°07'2 4.9
2017-Oct-17 04:30N 29°44' W 095°09'2 4.6
2017-Oct-17 04:00N 29°45' W 095°12'0 0.0
2017-Oct-17 03:16N 29°45' W 095°12'0 0.2
2017-Oct-17 03:00N 29°45' W 095°12'0 0.0
2017-Oct-17 02:30N 29°45' W 095°12'0 0.0
2017-Oct-17 02:00N 29°45' W 095°12'0 0.0
2017-Oct-17 01:30N 29°45' W 095°12'0 0.0
2017-Oct-17 01:00N 29°45' W 095°12'0 0.0
2017-Oct-17 00:29N 29°45' W 095°12'0 0.0
2017-Oct-16 23:58N 29°45' W 095°12'0 0.0
2017-Oct-16 23:28N 29°45' W 095°12'0 0.0
2017-Oct-16 22:58N 29°45' W 095°12'0 0.0
2017-Oct-16 22:24N 29°45' W 095°12'0 0.0
2017-Oct-16 21:59N 29°45' W 095°12'0 0.0
2017-Oct-16 21:24N 29°45' W 095°12'0 0.0
2017-Oct-16 20:46N 29°45' W 095°12'0 0.0
2017-Oct-16 20:27N 29°45' W 095°12'0 0.0
2017-Oct-16 20:00N 29°45' W 095°12'0 0.0
2017-Oct-16 19:24N 29°45' W 095°12'0 0.0
2017-Oct-16 18:59N 29°45' W 095°12'0 0.0
2017-Oct-16 18:28N 29°45' W 095°12'2 0.1
2017-Oct-16 06:03N 29°45' W 095°10'0 7.0
2017-Oct-16 06:00N 29°44' W 095°09'  

Dump ship's entire track history